x

Orange Beach - 44 Nm Se Of Mobile, Al (42012) Wave Buoy

8:50am - Sun 25th Jun 2017 All times are CDT. -5 hours from GMT.

  • Sig Wave height 1.6ft
  • Swell Direction
  • Peak Period 5s
  • Average Period 4s
  • Wind
    7mph, 9mph gusts
  • Sea Temp 83°f
  • Air Temp 80°f
  • Sea Pressure 1019mb
  • Orange Beach - 44 Nm Se Of Mobile, Al
  • Orange Beach - 44 Nm Se Of Mobile, Al

More Historic Weather Station data

Upgrade to MSW Pro to gain access to the past 30 days of data for over 8000 Wavebouys and Weather Stations around the globe.

Join Pro

Comparision Forecast

View Surf forecast
   
Sun 06/25 8:50am 1.6ft 5s 4s 7 9 mph 1019mb 83f 80f
7:50am 1.6ft 6s 5s 4 7 mph 1018.7mb 83f 81f
6:50am 1.6ft 6s 4s 2 4 mph 1018.3mb 83f 81f
5:50am 1.6ft 6s 5s 4 4 mph 1018mb 83f 81f
4:50am 1.6ft 5s 4s 4 7 mph 1017.6mb 83f 81f
3:50am 1.6ft 6s 4s 9 9 mph 1017.5mb 83f 82f
2:50am 1.6ft 6s 4s 7 9 mph 1017.5mb 83f 82f
1:50am 1.6ft 6s 4s 9 11 mph 1017.8mb 83f 82f
12:50am 2ft 6s 4s 11 11 mph 1017.9mb 83f 83f
Sat 06/24 11:50pm 2ft 7s 4s 11 13 mph 1018.2mb 83f 83f
10:50pm 2.5ft 6s 4s 11 13 mph 1018.1mb 83f 83f
9:50pm 2.5ft 6s 4s 13 16 mph 1017.5mb 83f 83f
8:50pm 2.5ft 6s 4s 13 16 mph 1017.1mb 83f 83f
7:50pm 2.5ft 6s 4s 13 16 mph 1016.8mb 84f 83f
6:50pm 2.5ft 6s 5s 13 16 mph 1016.5mb 84f 83f
5:50pm 2.5ft 7s 5s 13 16 mph 1016.2mb 84f 82f
4:50pm 2ft 7s 4s 9 11 mph 1016mb 83f 82f
3:50pm 2.5ft 6s 4s 11 13 mph 1016.4mb 83f 82f
2:50pm 2.5ft 6s 4s 13 13 mph 1016.8mb 82f 82f
1:50pm 2.5ft 6s 4s 13 13 mph 1017.1mb 82f 82f
12:50pm 2.5ft 6s 5s 11 13 mph 1017.3mb 82f 82f
11:50am 2.5ft 6s 4s 11 13 mph 1017.5mb 81f 81f
10:50am 2.5ft 7s 4s 11 16 mph 1017mb 81f 81f
9:50am 2.5ft 6s 4s 13 16 mph 1016.5mb 81f 81f
8:50am 2.5ft 7s 4s 13 16 mph 1016.9mb 81f 80f
7:50am 3ft 7s 5s 13 16 mph 1016.4mb 81f 80f
6:50am 3ft 6s 5s 13 16 mph 1016.2mb 80f 80f
5:50am 3ft 6s 5s 11 13 mph 1015.8mb 81f 80f
4:50am 3ft 6s 4s 13 16 mph 1014.7mb 81f 80f
3:50am 3ft 7s 4s 16 16 mph 1014.6mb 81f 80f
2:50am 3ft 7s 5s 16 18 mph 1014.8mb 81f 80f
1:50am 3ft 7s 5s 13 16 mph 1015.2mb 81f 80f
12:50am 3ft 6s 5s 11 11 mph 1016mb 81f 80f
Fri 06/23 11:50pm 3.5ft 7s 5s 16 18 mph 1015.6mb 81f 81f
10:50pm 3.5ft 6s 5s 13 18 mph 1015.3mb 81f 81f
9:50pm 3ft 7s 5s 13 13 mph 1015.3mb 81f 81f
8:50pm 3.5ft 6s 5s 13 16 mph 1015.2mb 81f 81f
7:50pm 3.5ft 7s 5s 13 13 mph 1015mb 81f 81f
6:50pm 3.5ft 7s 5s 13 18 mph 1014mb 81f 81f
5:50pm 3.5ft 7s 5s 16 18 mph 1013.7mb 81f 81f
4:50pm 3.5ft 7s 5s 16 18 mph 1013.7mb 81f 81f
3:50pm 3.5ft 8s 5s 18 20 mph 1013.8mb 81f 81f
2:50pm 3.5ft 7s 5s 16 18 mph 1014.4mb 81f 81f
1:50pm 4ft 7s 5s 16 20 mph 1015mb 81f 81f
12:50pm 4ft 6s 5s 18 20 mph 1015mb 81f 81f
11:50am 4.5ft 7s 5s 18 20 mph 1015.3mb 81f 81f
10:50am 4.5ft 7s 5s 16 18 mph 1015.3mb 80f 80f
9:50am 4.5ft 7s 5s 18 22 mph 1015mb 80f 80f
8:50am 5ft 8s 5s 20 25 mph 1014.8mb 80f 80f
7:50am 4.5ft 7s 5s 18 22 mph 1014.5mb 80f 80f
6:50am 5ft 8s 5s 18 22 mph 1013.9mb 80f 80f
5:50am 5ft 8s 5s 20 22 mph 1013.7mb 80f 80f
4:50am 5.5ft 7s 5s 18 22 mph 1013.2mb 80f 80f
3:50am 5ft 7s 5s 18 22 mph 1013.3mb 80f 80f
2:50am 5.5ft 8s 5s 18 20 mph 1013.3mb 80f 80f
1:50am 6ft 8s 5s 18 22 mph 1013.6mb 80f 80f
12:50am 6.5ft 8s 6s 20 25 mph 1014mb 80f 80f
Thu 06/22 11:50pm 6ft 8s 5s 20 27 mph 1014.3mb 80f 81f
10:50pm 6ft 8s 5s 20 25 mph 1014.3mb 80f 81f
9:50pm 6.5ft 8s 6s 22 27 mph 1013.8mb 80f 81f
8:50pm 6ft 8s 5s 20 25 mph 1013.1mb 80f 81f
7:50pm 7.5ft 8s 6s 22 27 mph 1012.8mb 80f 81f
6:50pm 7.5ft 8s 6s 22 29 mph 1012.6mb 80f 81f
5:50pm 7ft 7s 6s 22 29 mph 1012.4mb 80f 81f
4:50pm 7ft 8s 6s 22 27 mph 1012.4mb 81f 81f
3:50pm 7ft 9s 6s 25 27 mph 1012.6mb 80f 81f
2:50pm 7.5ft 9s 6s 22 27 mph 1013.2mb 80f 81f
1:50pm 7.5ft 9s 6s 25 29 mph 1013.2mb 80f 81f
12:50pm 7.5ft 9s 6s 25 29 mph 1013.3mb 80f 81f
11:50am 8.5ft 8s 6s 25 29 mph 1013.3mb 80f 81f
10:50am 8ft 9s 6s 34 40 mph 1012.7mb 80f 80f
9:50am 8ft 9s 6s 25 31 mph 1012.8mb 80f 81f
8:50am 8.5ft 8s 6s 22 27 mph 1013.1mb 80f 81f
7:50am 8.5ft 8s 6s 25 31 mph 1012.4mb 80f 81f
6:50am 8.5ft 7s 6s 27 34 mph 1011.3mb 80f 81f
5:50am 9ft 9s 6s 29 36 mph 1010.4mb 80f 81f
4:50am 9ft 7s 6s 25 29 mph 1010.4mb 80f 80f
3:50am 9ft 8s 6s 27 31 mph 1010.3mb 80f 81f
2:50am 9ft 9s 6s 27 34 mph 1010.2mb 80f 80f
1:50am 9.5ft 9s 6s 25 31 mph 1010.9mb 80f 81f
12:50am 10ft 8s 6s 22 29 mph 1011.5mb 80f 81f
Wed 06/21 11:50pm 10ft 8s 6s 22 31 mph 1012mb 80f 80f
10:50pm 10ft 8s 6s 27 31 mph 1011.6mb 80f 80f
9:50pm 9.5ft 7s 6s 25 31 mph 1011.2mb 80f 80f
8:50pm 10ft 8s 6s 27 34 mph 1010.7mb 80f 80f
7:50pm 11ft 9s 6s 29 36 mph 1010.2mb 80f 80f
6:50pm 10ft 8s 6s 31 38 mph 1009.5mb 80f 79f
5:50pm 9ft 9s 6s 29 36 mph 1009.3mb 80f 80f
4:50pm 9ft 8s 6s 29 38 mph 1009.1mb 80f 80f
3:50pm 8.5ft 10s 6s 25 29 mph 1009.6mb 80f 81f
2:50pm 8ft 8s 6s 25 29 mph 1010.5mb 80f 81f